createdAt,value
2022-11-24T00:01:30.696Z,101091.89
2022-11-24T00:04:06.436Z,101089.80
2022-11-24T00:06:36.081Z,101076.85
2022-11-24T00:09:05.590Z,101089.79
2022-11-24T00:11:36.329Z,101092.48
2022-11-24T00:14:06.414Z,101092.86
2022-11-24T00:16:37.419Z,101091.79
2022-11-24T00:19:13.613Z,101091.48
2022-11-24T00:21:45.600Z,101089.77
2022-11-24T00:24:14.145Z,101086.42
2022-11-24T00:26:43.531Z,101092.99
2022-11-24T00:29:12.815Z,101091.63
2022-11-24T00:31:42.357Z,101092.96
2022-11-24T00:34:13.166Z,101088.93
2022-11-24T00:36:42.653Z,101086.54
2022-11-24T00:39:15.530Z,101085.42
2022-11-24T00:41:44.585Z,101082.51
2022-11-24T00:44:13.239Z,101074.39
2022-11-24T00:46:41.958Z,101075.86
2022-11-24T00:49:10.552Z,101081.84
2022-11-24T00:51:39.275Z,101072.48
2022-11-24T00:54:07.931Z,101089.09
2022-11-24T00:56:36.421Z,101095.98
2022-11-24T00:59:04.936Z,101097.11
2022-11-24T01:01:33.523Z,101088.02
2022-11-24T01:04:02.608Z,101104.00
2022-11-24T01:06:32.877Z,101103.54
2022-11-24T01:09:02.156Z,101106.31
2022-11-24T01:11:53.464Z,101102.81
2022-11-24T01:14:25.061Z,101102.33
2022-11-24T01:16:54.455Z,101087.89
2022-11-24T01:19:24.004Z,101104.14
2022-11-24T01:21:52.666Z,101109.52
2022-11-24T01:24:21.297Z,101106.63
2022-11-24T01:26:49.826Z,101106.39
2022-11-24T01:29:18.244Z,101107.23
2022-11-24T01:31:46.675Z,101105.48
2022-11-24T01:34:15.150Z,101105.29
2022-11-24T01:36:43.808Z,101107.82
2022-11-24T01:39:12.500Z,101108.17
2022-11-24T01:41:40.972Z,101109.55
2022-11-24T01:44:31.184Z,101116.52
2022-11-24T01:47:05.741Z,101116.95
2022-11-24T01:49:39.779Z,101115.88
2022-11-24T01:52:41.283Z,101116.09
2022-11-24T01:55:16.465Z,101109.91
2022-11-24T01:57:56.996Z,101109.88
2022-11-24T02:00:25.831Z,101112.30
2022-11-24T02:02:54.449Z,101107.77
2022-11-24T02:05:29.084Z,101102.29
2022-11-24T02:08:00.962Z,101102.16
2022-11-24T02:10:30.100Z,101094.02
2022-11-24T02:13:00.960Z,101085.05
2022-11-24T02:15:29.979Z,101098.09
2022-11-24T02:17:59.486Z,101098.52
2022-11-24T02:20:27.863Z,101100.88
2022-11-24T02:23:20.962Z,101103.57
2022-11-24T02:26:24.506Z,101097.70
2022-11-24T02:28:53.187Z,101097.55
2022-11-24T02:31:21.909Z,101098.50
2022-11-24T02:33:50.759Z,101091.73
2022-11-24T02:36:19.235Z,101090.89
2022-11-24T02:38:47.626Z,101088.75
2022-11-24T02:41:22.703Z,101093.27
2022-11-24T02:44:00.604Z,101087.48
2022-11-24T02:46:29.045Z,101085.91
2022-11-24T02:48:57.526Z,101093.19
2022-11-24T02:51:25.871Z,101088.23
2022-11-24T02:53:54.171Z,101093.61
2022-11-24T02:56:22.608Z,101092.21
2022-11-24T02:58:50.865Z,101096.38
2022-11-24T03:01:19.272Z,101089.78
2022-11-24T03:03:47.676Z,101090.16
2022-11-24T03:06:15.964Z,101078.09
2022-11-24T03:08:44.373Z,101093.94
2022-11-24T03:11:12.800Z,101097.73
2022-11-24T03:13:41.176Z,101108.51
2022-11-24T03:16:10.783Z,101116.27
2022-11-24T03:18:39.392Z,101117.84
2022-11-24T03:21:07.687Z,101118.50
2022-11-24T03:23:36.244Z,101117.88
2022-11-24T03:26:13.281Z,101113.27
2022-11-24T03:28:41.783Z,101098.13
2022-11-24T03:31:11.118Z,101113.39
2022-11-24T03:33:39.955Z,101117.41
2022-11-24T03:36:09.186Z,101123.13
2022-11-24T03:38:37.463Z,101119.27
2022-11-24T03:41:06.001Z,101118.25
2022-11-24T03:43:37.810Z,101109.80
2022-11-24T03:46:09.239Z,101106.23
2022-11-24T03:48:37.539Z,101106.64
2022-11-24T03:51:06.145Z,101109.52
2022-11-24T03:53:34.700Z,101109.26
2022-11-24T03:56:04.095Z,101106.43
2022-11-24T03:58:32.685Z,101101.31
2022-11-24T04:01:01.316Z,101091.93
2022-11-24T04:03:29.990Z,101087.86
2022-11-24T04:05:58.342Z,101092.95
2022-11-24T04:08:26.659Z,101093.33
2022-11-24T04:10:54.986Z,101080.02
2022-11-24T04:13:26.351Z,101101.36
2022-11-24T04:15:55.020Z,101102.03
2022-11-24T04:18:23.583Z,101104.15
2022-11-24T04:20:52.774Z,101098.96
2022-11-24T04:23:21.114Z,101109.87
2022-11-24T04:25:49.579Z,101121.23
2022-11-24T04:28:17.961Z,101113.60
2022-11-24T04:30:46.329Z,101105.05
2022-11-24T04:33:14.643Z,101117.08
2022-11-24T04:35:43.077Z,101122.41
2022-11-24T04:38:11.363Z,101118.10
2022-11-24T04:40:40.017Z,101117.33
2022-11-24T04:43:09.586Z,101110.10
2022-11-24T04:45:38.379Z,101111.70
2022-11-24T04:48:06.853Z,101114.11
2022-11-24T04:50:37.022Z,101109.27
2022-11-24T04:53:05.447Z,101110.67
2022-11-24T04:55:33.775Z,101103.64
2022-11-24T04:58:02.701Z,101120.77
2022-11-24T05:00:30.996Z,101128.27
2022-11-24T05:02:59.378Z,101135.48
2022-11-24T05:05:27.701Z,101137.05
2022-11-24T05:07:56.262Z,101126.63
2022-11-24T05:10:36.940Z,101149.57
2022-11-24T05:13:10.449Z,101151.84
2022-11-24T05:15:39.958Z,101154.86
2022-11-24T05:18:11.293Z,101163.73
2022-11-24T05:20:39.701Z,101145.46
2022-11-24T05:23:08.766Z,101172.88
2022-11-24T05:25:37.166Z,101178.90
2022-11-24T05:28:10.097Z,101177.08
2022-11-24T05:30:40.216Z,101180.80
2022-11-24T05:33:12.495Z,101184.91
2022-11-24T05:35:41.742Z,101186.27
2022-11-24T05:38:10.222Z,101193.86
2022-11-24T05:40:38.764Z,101192.70
2022-11-24T05:43:15.520Z,101188.21
2022-11-24T05:45:44.959Z,101185.48
2022-11-24T05:48:15.173Z,101186.04
2022-11-24T05:50:43.600Z,101190.39
2022-11-24T05:53:13.457Z,101186.10
2022-11-24T05:55:42.985Z,101182.67
2022-11-24T05:58:11.229Z,101200.11
2022-11-24T06:00:39.358Z,101204.19
2022-11-24T06:03:09.008Z,101195.98
2022-11-24T06:05:37.820Z,101193.79
2022-11-24T06:08:06.025Z,101193.10
2022-11-24T06:10:34.261Z,101209.58
2022-11-24T06:13:06.335Z,101199.23
2022-11-24T06:15:37.967Z,101194.80
2022-11-24T06:18:06.168Z,101203.15
2022-11-24T06:20:34.699Z,101205.23
2022-11-24T06:23:02.834Z,101207.30
2022-11-24T06:25:31.128Z,101205.97
2022-11-24T06:28:02.788Z,101209.91
2022-11-24T06:30:31.114Z,101214.20
2022-11-24T06:32:59.278Z,101220.58
2022-11-24T06:35:27.532Z,101223.80
2022-11-24T06:37:56.282Z,101218.24
2022-11-24T06:40:24.748Z,101224.93
2022-11-24T06:42:53.017Z,101234.39
2022-11-24T06:45:21.256Z,101224.80
2022-11-24T06:47:49.482Z,101226.77
2022-11-24T06:50:17.717Z,101226.94
2022-11-24T06:52:46.074Z,101221.70
2022-11-24T06:55:14.351Z,101222.42
2022-11-24T06:57:42.611Z,101200.36
2022-11-24T07:00:11.317Z,101217.71
2022-11-24T07:02:45.427Z,101214.42
2022-11-24T07:05:14.866Z,101210.61
2022-11-24T07:07:43.190Z,101210.83
2022-11-24T07:10:11.425Z,101215.91
2022-11-24T07:12:39.685Z,101206.05
2022-11-24T07:15:20.569Z,101216.50
2022-11-24T07:17:49.606Z,101221.97
2022-11-24T07:20:17.881Z,101223.16
2022-11-24T07:22:46.424Z,101222.89
2022-11-24T07:25:14.749Z,101227.59
2022-11-24T07:27:43.128Z,101235.06
2022-11-24T07:30:11.517Z,101234.26
2022-11-24T07:32:39.990Z,101226.28
2022-11-24T07:35:08.512Z,101246.77
2022-11-24T07:37:36.716Z,101242.98
2022-11-24T07:40:05.465Z,101247.20
2022-11-24T07:42:33.688Z,101245.68
2022-11-24T07:45:02.091Z,101245.03
2022-11-24T07:47:30.549Z,101242.81
2022-11-24T07:49:58.789Z,101216.34
2022-11-24T07:52:27.217Z,101238.26
2022-11-24T07:54:55.536Z,101241.04
2022-11-24T07:57:23.883Z,101243.85
2022-11-24T07:59:52.608Z,101244.77
2022-11-24T08:02:21.340Z,101245.86
2022-11-24T08:04:49.646Z,101243.77
2022-11-24T08:07:18.360Z,101242.39
2022-11-24T08:09:47.133Z,101250.23
2022-11-24T08:12:17.593Z,101252.49
2022-11-24T08:14:46.047Z,101247.98
2022-11-24T08:17:15.400Z,101244.10
2022-11-24T08:19:44.658Z,101244.61
2022-11-24T08:22:13.070Z,101251.75
2022-11-24T08:24:46.668Z,101251.82
2022-11-24T08:27:16.255Z,101241.63
2022-11-24T08:29:45.264Z,101255.42
2022-11-24T08:32:20.446Z,101253.98
2022-11-24T08:34:52.093Z,101256.02
2022-11-24T08:37:20.983Z,101260.28
2022-11-24T08:39:49.475Z,101268.05
2022-11-24T08:42:17.908Z,101273.30
2022-11-24T08:44:46.266Z,101261.91
2022-11-24T08:47:14.639Z,101274.72
2022-11-24T08:49:42.968Z,101277.60
2022-11-24T08:52:11.579Z,101280.46
2022-11-24T08:54:40.998Z,101280.93
2022-11-24T08:57:09.416Z,101285.05
2022-11-24T08:59:37.837Z,101285.12
2022-11-24T09:02:06.476Z,101285.37
2022-11-24T09:04:35.202Z,101287.30
2022-11-24T09:07:04.047Z,101270.34
2022-11-24T09:09:32.395Z,101284.70
2022-11-24T09:12:01.235Z,101285.14
2022-11-24T09:14:29.929Z,101285.17
2022-11-24T09:16:58.645Z,101288.45
2022-11-24T09:19:26.937Z,101287.86
2022-11-24T09:21:55.437Z,101289.64
2022-11-24T09:24:24.045Z,101289.45
2022-11-24T09:26:55.565Z,101291.33
2022-11-24T09:29:24.034Z,101293.71
2022-11-24T09:31:52.316Z,101293.67
2022-11-24T09:34:20.549Z,101290.77
2022-11-24T09:36:48.705Z,101289.98
2022-11-24T09:39:16.841Z,101286.86
2022-11-24T09:41:48.617Z,101288.77
2022-11-24T09:44:46.265Z,101291.38
2022-11-24T09:47:56.237Z,101289.95
2022-11-24T09:50:27.955Z,101287.54
2022-11-24T09:53:03.912Z,101293.20
2022-11-24T09:55:42.181Z,101295.99
2022-11-24T09:58:35.829Z,101293.17
2022-11-24T10:01:21.002Z,101289.60
2022-11-24T10:03:51.314Z,101287.95
2022-11-24T10:06:24.426Z,101290.52
2022-11-24T10:09:11.772Z,101290.94
2022-11-24T10:12:16.843Z,101283.89
2022-11-24T10:15:12.802Z,101280.16
2022-11-24T10:18:02.369Z,101277.41
2022-11-24T10:20:31.248Z,101272.44
2022-11-24T10:23:20.420Z,101273.59
2022-11-24T10:25:59.704Z,101279.92
2022-11-24T10:28:38.685Z,101275.92
2022-11-24T10:31:24.740Z,101280.08
2022-11-24T10:33:53.034Z,101279.22
2022-11-24T10:36:50.303Z,101283.56
2022-11-24T10:39:21.954Z,101290.36
2022-11-24T10:42:12.647Z,101291.79
2022-11-24T10:44:42.491Z,101290.26
2022-11-24T10:47:22.994Z,101295.86
2022-11-24T10:50:28.572Z,101295.98
2022-11-24T10:53:25.766Z,101294.13
2022-11-24T10:55:56.846Z,101294.83
2022-11-24T10:58:32.859Z,101293.56
2022-11-24T11:01:13.386Z,101287.30
2022-11-24T11:03:50.011Z,101293.64
2022-11-24T11:06:30.271Z,101290.77
2022-11-24T11:09:07.522Z,101290.85
2022-11-24T11:11:38.794Z,101287.11
2022-11-24T11:14:10.163Z,101292.05
2022-11-24T11:17:04.864Z,101290.59
2022-11-24T11:19:49.830Z,101294.79
2022-11-24T11:22:28.577Z,101294.98
2022-11-24T11:25:14.990Z,101296.99
2022-11-24T11:27:43.258Z,101296.34
2022-11-24T11:36:16.081Z,101292.52
2022-11-24T11:38:46.446Z,101292.85
2022-11-24T11:41:24.293Z,101291.12
2022-11-24T11:44:15.310Z,101288.64
2022-11-24T11:46:44.558Z,101288.77
2022-11-24T11:49:14.562Z,101284.38
2022-11-24T11:52:13.452Z,101284.05
2022-11-24T11:54:59.782Z,101284.30
2022-11-24T11:58:01.781Z,101283.54
2022-11-24T12:00:35.833Z,101285.98
2022-11-24T12:03:22.717Z,101268.86
2022-11-24T12:06:09.246Z,101283.14
2022-11-24T12:09:18.559Z,101286.74
2022-11-24T12:12:04.931Z,101281.08
2022-11-24T12:14:39.410Z,101286.34
2022-11-24T12:17:33.032Z,101276.51
2022-11-24T12:20:19.237Z,101288.02
2022-11-24T12:23:00.766Z,101290.09
2022-11-24T12:25:33.293Z,101284.80
2022-11-24T12:28:25.486Z,101283.38
2022-11-24T12:30:59.679Z,101287.30
2022-11-24T12:33:36.625Z,101288.52
2022-11-24T12:36:30.414Z,101294.69
2022-11-24T12:39:07.020Z,101292.08
2022-11-24T12:42:05.297Z,101293.05
2022-11-24T12:44:42.458Z,101293.05
2022-11-24T12:47:20.269Z,101295.18
2022-11-24T12:49:51.683Z,101297.08
2022-11-24T12:52:26.277Z,101301.79
2022-11-24T12:54:56.101Z,101289.77
2022-11-24T12:57:59.625Z,101297.59
2022-11-24T13:00:40.286Z,101297.45
2022-11-24T13:03:39.186Z,101303.65
2022-11-24T13:06:21.350Z,101302.13
2022-11-24T13:08:50.208Z,101300.73
2022-11-24T13:11:21.129Z,101302.13
2022-11-24T13:14:00.713Z,101305.25
2022-11-24T13:16:41.092Z,101302.73
2022-11-24T13:19:23.583Z,101306.84
2022-11-24T13:22:10.928Z,101313.20
2022-11-24T13:24:40.266Z,101314.61
2022-11-24T13:27:17.992Z,101317.02
2022-11-24T13:29:47.933Z,101309.84
2022-11-24T13:32:19.428Z,101303.23
2022-11-24T13:34:55.016Z,101303.81
2022-11-24T13:37:33.574Z,101304.98
2022-11-24T13:40:17.876Z,101295.06
2022-11-24T13:42:55.154Z,101302.29
2022-11-24T13:45:39.449Z,101303.05
2022-11-24T13:48:20.237Z,101308.59
2022-11-24T13:50:52.243Z,101312.64
2022-11-24T13:53:44.107Z,101315.89
2022-11-24T13:56:13.030Z,101313.45
2022-11-24T13:58:43.160Z,101298.62
2022-11-24T14:01:23.577Z,101316.81
2022-11-24T14:06:52.335Z,101321.95
2022-11-24T14:09:29.588Z,101323.36
2022-11-24T14:11:59.511Z,101326.87
2022-11-24T14:14:27.896Z,101328.16
2022-11-24T14:17:23.140Z,101331.62
2022-11-24T14:19:53.796Z,101326.98
2022-11-24T14:22:41.547Z,101346.92
2022-11-24T14:25:31.347Z,101351.65
2022-11-24T14:28:00.627Z,101358.80
2022-11-24T14:30:29.657Z,101360.21
2022-11-24T14:32:59.932Z,101361.16
2022-11-24T14:35:34.234Z,101365.98
2022-11-24T14:38:05.335Z,101372.34
2022-11-24T14:40:41.092Z,101373.29
2022-11-24T14:43:26.235Z,101375.26
2022-11-24T14:46:02.722Z,101378.80
2022-11-24T14:48:36.414Z,101382.95
2022-11-24T14:51:10.963Z,101383.90
2022-11-24T14:53:47.375Z,101387.44
2022-11-24T14:56:31.292Z,101386.44
2022-11-24T14:59:00.093Z,101390.95
2022-11-24T15:01:29.433Z,101395.47
2022-11-24T15:04:26.513Z,101390.69
2022-11-24T15:07:05.531Z,101390.40
2022-11-24T15:09:43.913Z,101389.77
2022-11-24T15:12:29.071Z,101388.33
2022-11-24T15:15:23.050Z,101384.48
2022-11-24T15:18:00.397Z,101386.70
2022-11-24T15:20:35.391Z,101385.14
2022-11-24T15:23:33.218Z,101387.11
2022-11-24T15:26:01.799Z,101386.66
2022-11-24T15:28:31.557Z,101390.98
2022-11-24T15:31:02.360Z,101389.21
2022-11-24T15:33:31.942Z,101387.79
2022-11-24T15:36:00.770Z,101373.77
2022-11-24T15:38:29.310Z,101372.02
2022-11-24T15:41:00.437Z,101379.71
2022-11-24T15:43:38.807Z,101376.22
2022-11-24T15:46:08.990Z,101377.17
2022-11-24T15:48:37.658Z,101378.66
2022-11-24T15:51:09.002Z,101375.03
2022-11-24T15:53:45.364Z,101362.64
2022-11-24T15:56:26.509Z,101372.55
2022-11-24T15:58:55.119Z,101371.84
2022-11-24T16:01:24.801Z,101370.45
2022-11-24T16:03:53.364Z,101375.71
2022-11-24T16:06:25.153Z,101374.01
2022-11-24T16:08:54.840Z,101370.39
2022-11-24T16:11:24.047Z,101372.92
2022-11-24T16:13:54.232Z,101368.27
2022-11-24T16:16:24.998Z,101369.52
2022-11-24T16:18:53.623Z,101347.73
2022-11-24T16:21:22.000Z,101381.73
2022-11-24T16:23:50.297Z,101383.52
2022-11-24T16:26:19.144Z,101387.42
2022-11-24T16:28:47.484Z,101389.52
2022-11-24T16:31:16.481Z,101395.77
2022-11-24T16:33:46.579Z,101397.35
2022-11-24T16:36:15.269Z,101392.95
2022-11-24T16:38:44.055Z,101408.85
2022-11-24T16:41:13.161Z,101414.22
2022-11-24T16:43:41.587Z,101412.60
2022-11-24T16:46:21.322Z,101413.85
2022-11-24T16:48:52.855Z,101415.90
2022-11-24T16:51:23.177Z,101418.51
2022-11-24T16:54:00.857Z,101415.00
2022-11-24T16:56:30.859Z,101416.48
2022-11-24T16:58:59.510Z,101420.73
2022-11-24T17:01:27.986Z,101418.43
2022-11-24T17:03:56.839Z,101420.61
2022-11-24T17:06:27.003Z,101415.10
2022-11-24T17:08:55.909Z,101401.77
2022-11-24T17:11:26.150Z,101418.08
2022-11-24T17:13:56.869Z,101410.59
2022-11-24T17:16:26.244Z,101416.03
2022-11-24T17:18:54.690Z,101427.52
2022-11-24T17:21:25.680Z,101427.52
2022-11-24T17:23:55.768Z,101428.33
2022-11-24T17:26:25.364Z,101433.42
2022-11-24T17:28:54.424Z,101432.23
2022-11-24T17:31:35.725Z,101438.98
2022-11-24T17:34:06.388Z,101443.39
2022-11-24T17:36:35.299Z,101445.66
2022-11-24T17:39:05.545Z,101446.50
2022-11-24T17:41:34.695Z,101450.36
2022-11-24T17:44:03.078Z,101454.30
2022-11-24T17:46:31.949Z,101455.92
2022-11-24T17:49:00.541Z,101455.08
2022-11-24T17:51:29.133Z,101457.84
2022-11-24T17:53:57.769Z,101458.85
2022-11-24T17:56:27.777Z,101465.05
2022-11-24T17:59:00.915Z,101466.30
2022-11-24T18:01:31.617Z,101466.30
2022-11-24T18:04:00.321Z,101461.81
2022-11-24T18:06:29.132Z,101455.34
2022-11-24T18:08:58.400Z,101464.70
2022-11-24T18:11:31.872Z,101447.07
2022-11-24T18:14:03.364Z,101461.49
2022-11-24T18:16:34.391Z,101466.85
2022-11-24T18:19:09.110Z,101469.30
2022-11-24T18:21:40.180Z,101468.45
2022-11-24T18:24:10.147Z,101467.77
2022-11-24T18:26:39.545Z,101459.65
2022-11-24T18:29:08.502Z,101463.02
2022-11-24T18:31:37.724Z,101459.35
2022-11-24T18:34:06.908Z,101459.73
2022-11-24T18:36:36.061Z,101445.34
2022-11-24T18:39:06.700Z,101435.98
2022-11-24T18:41:35.464Z,101462.11
2022-11-24T18:44:08.332Z,101468.85
2022-11-24T18:46:37.879Z,101473.81
2022-11-24T18:49:07.439Z,101467.94
2022-11-24T18:51:36.281Z,101479.57
2022-11-24T18:54:05.683Z,101481.42
2022-11-24T18:56:34.289Z,101482.77
2022-11-24T18:59:02.748Z,101481.63
2022-11-24T19:01:32.382Z,101490.36
2022-11-24T19:04:03.143Z,101495.23
2022-11-24T19:06:34.116Z,101492.52
2022-11-24T19:09:14.834Z,101496.79
2022-11-24T19:11:45.760Z,101498.17
2022-11-24T19:14:17.640Z,101501.16
2022-11-24T19:16:48.195Z,101498.30
2022-11-24T19:19:17.471Z,101497.46
2022-11-24T19:21:46.064Z,101496.64
2022-11-24T19:24:14.345Z,101500.95
2022-11-24T19:26:42.918Z,101497.96
2022-11-24T19:29:11.584Z,101502.13
2022-11-24T19:31:40.373Z,101506.52
2022-11-24T19:34:08.940Z,101507.48
2022-11-24T19:36:37.776Z,101506.52
2022-11-24T19:39:07.215Z,101503.61
2022-11-24T19:41:35.745Z,101503.27
2022-11-24T19:44:04.231Z,101492.85
2022-11-24T19:46:33.602Z,101497.85
2022-11-24T19:49:02.767Z,101498.48
2022-11-24T19:51:34.259Z,101499.82
2022-11-24T19:54:04.267Z,101496.95
2022-11-24T19:56:35.176Z,101500.03
2022-11-24T19:59:05.940Z,101500.69
2022-11-24T20:01:40.289Z,101503.17
2022-11-24T20:04:12.675Z,101483.52
2022-11-24T20:06:43.984Z,101514.85
2022-11-24T20:09:16.113Z,101516.87
2022-11-24T20:11:45.578Z,101513.92
2022-11-24T20:14:16.503Z,101531.21
2022-11-24T20:16:47.122Z,101537.10
2022-11-24T20:19:17.409Z,101537.92
2022-11-24T20:21:48.030Z,101538.83
2022-11-24T20:24:22.497Z,101536.13
2022-11-24T20:26:54.419Z,101533.41
2022-11-24T20:29:23.092Z,101530.13
2022-11-24T20:31:54.511Z,101525.88
2022-11-24T20:34:24.020Z,101524.52
2022-11-24T20:36:55.821Z,101531.80
2022-11-24T20:49:44.337Z,101551.27
2022-11-24T20:52:13.081Z,101550.45
2022-11-24T20:54:41.464Z,101553.73
2022-11-24T20:57:10.510Z,101538.38
2022-11-24T20:59:39.164Z,101553.55
2022-11-24T21:02:07.605Z,101564.05
2022-11-24T21:04:39.839Z,101570.77
2022-11-24T21:07:08.319Z,101571.81
2022-11-24T21:09:36.701Z,101581.52
2022-11-24T21:12:06.069Z,101583.48
2022-11-24T21:14:35.467Z,101584.89
2022-11-24T21:17:03.893Z,101580.48
2022-11-24T21:19:32.254Z,101565.92
2022-11-24T21:22:00.765Z,101575.45
2022-11-24T21:24:31.078Z,101578.29
2022-11-24T21:26:59.365Z,101577.93
2022-11-24T21:29:27.829Z,101574.20
2022-11-24T21:31:58.070Z,101559.42
2022-11-24T21:34:26.800Z,101569.92
2022-11-24T21:36:55.142Z,101571.76
2022-11-24T21:39:23.606Z,101571.21
2022-11-24T21:41:51.972Z,101575.05
2022-11-24T21:44:20.268Z,101568.73
2022-11-24T21:46:54.318Z,101564.84
2022-11-24T21:49:24.192Z,101546.23
2022-11-24T21:51:56.003Z,101560.67
2022-11-24T21:54:25.323Z,101561.67
2022-11-24T21:56:54.185Z,101566.87
2022-11-24T21:59:23.000Z,101565.98
2022-11-24T22:01:51.864Z,101567.60
2022-11-24T22:04:20.319Z,101551.40
2022-11-24T22:06:48.686Z,101571.21
2022-11-24T22:09:18.507Z,101573.91
2022-11-24T22:11:49.511Z,101573.67
2022-11-24T22:14:18.495Z,101570.60
2022-11-24T22:16:50.536Z,101571.63
2022-11-24T22:19:19.490Z,101567.85
2022-11-24T22:21:48.112Z,101571.50
2022-11-24T22:24:16.883Z,101571.77
2022-11-24T22:26:45.248Z,101566.98
2022-11-24T22:29:13.543Z,101565.84
2022-11-24T22:31:41.950Z,101569.90
2022-11-24T22:34:10.394Z,101578.18
2022-11-24T22:36:38.770Z,101586.49
2022-11-24T22:39:11.150Z,101584.35
2022-11-24T22:41:39.554Z,101582.36
2022-11-24T22:44:08.137Z,101570.02
2022-11-24T22:46:36.475Z,101579.26
2022-11-24T22:49:04.843Z,101578.49
2022-11-24T22:51:34.983Z,101572.08
2022-11-24T22:54:05.280Z,101574.52
2022-11-24T22:56:34.365Z,101577.26
2022-11-24T22:59:04.702Z,101565.56
2022-11-24T23:01:34.196Z,101599.31
2022-11-24T23:04:04.149Z,101600.90
2022-11-24T23:06:33.916Z,101595.15
2022-11-24T23:09:03.745Z,101600.02
2022-11-24T23:11:38.191Z,101605.48
2022-11-24T23:14:11.905Z,101603.69
2022-11-24T23:16:40.399Z,101595.48
2022-11-24T23:19:09.523Z,101598.21
2022-11-24T23:21:38.895Z,101599.11
2022-11-24T23:24:08.717Z,101605.83
2022-11-24T23:26:40.197Z,101609.00
2022-11-24T23:29:10.257Z,101609.20
2022-11-24T23:31:40.360Z,101603.90
2022-11-24T23:34:09.527Z,101602.88
2022-11-24T23:36:38.310Z,101607.59
2022-11-24T23:39:09.264Z,101606.30
2022-11-24T23:41:37.998Z,101613.56
2022-11-24T23:44:07.201Z,101615.02
2022-11-24T23:46:35.828Z,101613.23
2022-11-24T23:49:04.812Z,101615.77
2022-11-24T23:51:33.612Z,101618.36
2022-11-24T23:56:47.606Z,101622.20
2022-11-24T23:59:17.610Z,101620.10
